Time;durP1;ratioP1;P1;durP2;ratioP2;P2;SDS_P1;SDS_P2;PMS_P1;PMS_P2;Temp;Humidity;BMP_temperature;BMP_pressure;BME280_temperature;BME280_humidity;BME280_pressure;Samples;Min_cycle;Max_cycle;Signal;HPM_P1;HPM_P2
2023/12/06 00:01:38;;;;;;;4.00;3.10;;;14.20;86.10;;;;;;4984634;28;20180;-95
2023/12/06 00:04:07;;;;;;;4.60;3.07;;;14.20;86.30;;;;;;5000797;28;20161;-94
2023/12/06 00:06:38;;;;;;;4.00;3.10;;;14.20;86.50;;;;;;5000548;28;20189;-95
2023/12/06 00:09:06;;;;;;;5.37;3.20;;;14.10;86.70;;;;;;4984520;28;20183;-94
2023/12/06 00:12:18;;;;;;;4.13;3.10;;;14.10;86.70;;;;;;5000632;28;20197;-95
2023/12/06 00:14:49;;;;;;;3.73;2.97;;;14.10;86.90;;;;;;5000650;28;20181;-94
2023/12/06 00:17:18;;;;;;;3.97;2.90;;;14.10;87.10;;;;;;5000519;28;20174;-93
2023/12/06 00:19:47;;;;;;;3.63;2.97;;;14.10;87.20;;;;;;5000465;28;20288;-95
2023/12/06 00:22:21;;;;;;;3.77;3.20;;;14.10;87.30;;;;;;5014272;28;20259;-94
2023/12/06 00:24:47;;;;;;;3.70;3.10;;;14.00;87.30;;;;;;5023693;28;20243;-95
2023/12/06 00:27:44;;;;;;;3.40;2.90;;;14.10;87.50;;;;;;5023717;28;20170;-95
2023/12/06 00:30:38;;;;;;;3.83;3.00;;;14.00;87.50;;;;;;5023630;28;20170;-95
2023/12/06 00:33:05;;;;;;;3.73;3.00;;;14.00;87.60;;;;;;5023577;28;20162;-95
2023/12/06 00:36:04;;;;;;;3.47;2.80;;;14.10;87.60;;;;;;5023532;28;20183;-94
2023/12/06 00:38:59;;;;;;;3.53;3.00;;;14.10;87.60;;;;;;5023257;28;20164;-95
2023/12/06 00:41:34;;;;;;;3.57;2.90;;;14.10;88.20;;;;;;5039311;28;20213;-95
2023/12/06 00:44:05;;;;;;;3.40;2.87;;;14.10;87.50;;;;;;5023287;28;20213;-94
2023/12/06 00:46:55;;;;;;;3.57;2.93;;;14.10;87.20;;;;;;5022721;28;20181;-94
2023/12/06 00:49:58;;;;;;;3.37;2.77;;;14.30;86.60;;;;;;5023233;28;20151;-95
2023/12/06 00:52:30;;;;;;;4.57;3.23;;;14.30;86.20;;;;;;5023195;28;20164;-96
2023/12/06 00:54:56;;;;;;;6.07;3.50;;;14.40;85.50;;;;;;5023095;28;20158;-96
2023/12/06 00:57:41;;;;;;;4.17;2.80;;;14.50;85.00;;;;;;5022483;28;20175;-95
2023/12/06 01:00:28;;;;;;;3.50;2.90;;;14.50;84.60;;;;;;5023033;28;20219;-95
2023/12/06 01:03:29;;;;;;;3.50;3.10;;;14.50;84.70;;;;;;5039372;28;20163;-95
2023/12/06 01:06:10;;;;;;;3.70;3.30;;;14.50;84.20;;;;;;5002771;28;20203;-95
2023/12/06 01:12:32;;;;;;;4.33;3.20;;;14.60;83.70;;;;;;5019036;28;20262;-96
2023/12/06 01:15:13;;;;;;;3.37;2.83;;;14.60;83.60;;;;;;4999039;28;20194;-95
2023/12/06 01:17:55;;;;;;;3.23;2.93;;;14.60;83.60;;;;;;4983085;28;20168;-93
2023/12/06 01:20:30;;;;;;;3.30;3.00;;;14.50;83.60;;;;;;4983020;28;20255;-95
2023/12/06 01:22:56;;;;;;;3.40;3.07;;;14.50;83.70;;;;;;4982632;28;20179;-95
2023/12/06 01:25:21;;;;;;;3.93;3.00;;;14.50;83.90;;;;;;4966769;28;20206;-95
2023/12/06 01:31:17;;;;;;;3.67;2.87;;;14.40;84.20;;;;;;4999241;28;20163;-95
2023/12/06 01:33:43;;;;;;;3.17;2.87;;;14.40;84.50;;;;;;4983007;28;20196;-94
2023/12/06 01:36:09;;;;;;;4.07;3.27;;;14.30;84.50;;;;;;4982832;28;20232;-96
2023/12/06 01:38:34;;;;;;;3.27;2.80;;;14.40;84.70;;;;;;4982700;28;20193;-95
2023/12/06 01:41:00;;;;;;;3.10;2.80;;;14.30;84.70;;;;;;4982934;28;20176;-94
2023/12/06 01:43:26;;;;;;;4.10;2.80;;;14.30;84.80;;;;;;4982733;28;20210;-95
2023/12/06 01:45:51;;;;;;;3.80;3.17;;;14.30;85.10;;;;;;5002028;28;20204;-94
2023/12/06 01:48:21;;;;;;;3.67;2.73;;;14.20;85.30;;;;;;5022146;28;20230;-95
2023/12/06 01:50:51;;;;;;;3.70;2.90;;;14.20;85.50;;;;;;5022041;28;20163;-95
2023/12/06 02:04:18;;;;;;;3.27;2.77;;;14.10;86.00;;;;;;5038961;28;20185;-94
2023/12/06 02:06:46;;;;;;;2.87;2.63;;;14.10;86.10;;;;;;5020577;28;20166;-95
2023/12/06 02:09:12;;;;;;;3.17;2.50;;;14.10;86.40;;;;;;5020848;28;20172;-95
2023/12/06 02:11:42;;;;;;;3.23;2.80;;;14.10;86.40;;;;;;5021748;28;20162;-95
2023/12/06 02:18:18;;;;;;;3.00;2.70;;;14.10;86.70;;;;;;5038599;28;20167;-94
2023/12/06 02:20:45;;;;;;;3.53;2.50;;;14.00;86.60;;;;;;5038366;28;20183;-94
2023/12/06 02:23:12;;;;;;;2.50;2.30;;;14.00;86.60;;;;;;5021239;28;20166;-94
2023/12/06 02:25:47;;;;;;;2.93;2.60;;;14.00;86.60;;;;;;5021269;28;20164;-94
2023/12/06 02:28:16;;;;;;;3.00;2.70;;;14.00;86.70;;;;;;5021423;28;20172;-94
2023/12/06 02:31:16;;;;;;;2.90;2.60;;;14.00;86.80;;;;;;5021105;28;20265;-94
2023/12/06 02:33:42;;;;;;;3.57;2.87;;;14.00;86.90;;;;;;5021277;28;20185;-93
2023/12/06 02:36:10;;;;;;;2.70;2.50;;;14.00;86.90;;;;;;5008029;23;20548;0
2023/12/06 02:38:36;;;;;;;3.50;2.73;;;14.00;86.90;;;;;;4977304;28;20187;0
2023/12/06 02:41:04;;;;;;;2.97;2.67;;;14.00;87.10;;;;;;4975469;28;20183;0
2023/12/06 02:43:29;;;;;;;2.87;2.57;;;14.00;87.10;;;;;;4961169;28;20565;0
2023/12/06 02:45:55;;;;;;;3.00;2.70;;;14.00;87.10;;;;;;4976977;28;20184;0
2023/12/06 02:48:20;;;;;;;3.57;2.70;;;14.00;87.10;;;;;;4977338;28;20191;0
2023/12/06 02:50:46;;;;;;;2.77;2.50;;;13.90;87.10;;;;;;4977254;28;20263;0
2023/12/06 02:53:12;;;;;;;3.10;2.60;;;14.00;87.10;;;;;;4960293;28;20191;0
2023/12/06 02:55:37;;;;;;;3.07;2.60;;;14.00;87.10;;;;;;4977366;28;20172;0
2023/12/06 02:58:03;;;;;;;2.80;2.50;;;14.00;87.10;;;;;;4977520;28;20295;0
2023/12/06 03:00:30;;;;;;;2.90;2.60;;;14.00;87.10;;;;;;4961050;28;20221;0
2023/12/06 03:02:56;;;;;;;2.87;2.60;;;14.00;87.10;;;;;;4977651;28;20180;0
2023/12/06 03:05:22;;;;;;;3.20;2.80;;;13.90;87.10;;;;;;4978309;28;20244;0
2023/12/06 03:07:48;;;;;;;3.27;2.77;;;14.00;87.20;;;;;;4977656;28;20219;0
2023/12/06 03:10:20;;;;;;;2.77;2.53;;;14.00;87.10;;;;;;4980671;28;20170;0
2023/12/06 03:12:45;;;;;;;3.43;2.73;;;14.00;87.10;;;;;;4980933;28;20196;0
2023/12/06 03:15:11;;;;;;;3.03;2.70;;;14.00;87.00;;;;;;4981310;28;20174;0
2023/12/06 03:17:37;;;;;;;3.10;2.80;;;14.00;86.90;;;;;;4964830;28;20186;0
2023/12/06 03:20:16;;;;;;;3.60;2.60;;;14.00;86.90;;;;;;4981284;28;20206;0
2023/12/06 03:22:43;;;;;;;3.40;2.87;;;14.10;86.70;;;;;;4965195;28;20199;0
2023/12/06 03:25:09;;;;;;;2.73;2.53;;;14.10;86.50;;;;;;4980542;28;20176;0
2023/12/06 03:27:34;;;;;;;2.87;2.63;;;14.10;86.10;;;;;;4980591;28;20186;0
2023/12/06 03:30:00;;;;;;;3.10;2.53;;;14.10;86.20;;;;;;4964862;28;20207;0
2023/12/06 03:32:26;;;;;;;2.93;2.63;;;14.10;86.00;;;;;;4981485;28;20267;0
2023/12/06 03:34:52;;;;;;;2.73;2.50;;;14.10;86.00;;;;;;4981394;28;20162;0
2023/12/06 03:37:17;;;;;;;3.00;2.70;;;14.10;85.70;;;;;;4980980;28;20209;0
2023/12/06 03:39:43;;;;;;;3.30;2.60;;;14.20;85.80;;;;;;4980669;28;20279;0
2023/12/06 03:42:13;;;;;;;3.20;2.90;;;14.20;85.70;;;;;;4980023;28;20185;0
2023/12/06 03:44:39;;;;;;;2.77;2.50;;;14.10;85.70;;;;;;4980175;28;20172;0
2023/12/06 03:47:05;;;;;;;2.60;2.40;;;14.10;85.80;;;;;;4980142;28;20572;0
2023/12/06 03:49:31;;;;;;;2.70;2.50;;;14.10;85.90;;;;;;4980793;28;20189;0
2023/12/06 03:52:09;;;;;;;3.17;2.60;;;14.10;85.90;;;;;;4980358;28;20217;0
2023/12/06 03:54:35;;;;;;;3.17;2.80;;;14.10;85.70;;;;;;4980648;28;20227;0
2023/12/06 03:57:01;;;;;;;2.77;2.50;;;14.10;85.90;;;;;;4963803;28;20215;0
2023/12/06 03:59:26;;;;;;;3.30;2.53;;;14.10;85.90;;;;;;4980293;28;20250;0
2023/12/06 04:01:52;;;;;;;3.40;2.63;;;14.10;85.80;;;;;;4963762;28;20219;0
2023/12/06 04:04:33;;;;;;;3.17;2.53;;;14.10;85.80;;;;;;4980226;28;20180;0
2023/12/06 04:06:59;;;;;;;2.80;2.50;;;14.10;85.90;;;;;;4979986;28;20534;0
2023/12/06 04:09:24;;;;;;;2.60;2.40;;;14.10;86.00;;;;;;4979951;28;20194;0
2023/12/06 04:11:51;;;;;;;3.07;2.57;;;14.00;86.00;;;;;;4980460;28;20180;0
2023/12/06 04:14:17;;;;;;;3.03;2.60;;;13.90;86.40;;;;;;4980153;28;20185;0
2023/12/06 04:16:42;;;;;;;3.80;2.53;;;13.90;86.90;;;;;;4979994;28;20235;0
2023/12/06 04:19:08;;;;;;;3.10;2.80;;;13.80;87.00;;;;;;4963355;28;20234;0
2023/12/06 04:21:34;;;;;;;3.37;2.60;;;13.80;87.20;;;;;;4962271;28;20581;0
2023/12/06 04:24:00;;;;;;;3.20;2.90;;;13.80;87.40;;;;;;4979967;28;20182;0
2023/12/06 04:26:25;;;;;;;2.80;2.40;;;13.70;87.50;;;;;;4962904;28;20187;0
2023/12/06 04:28:51;;;;;;;2.73;2.50;;;13.70;87.70;;;;;;4979078;28;20593;0
2023/12/06 04:31:56;;;;;;;2.57;2.37;;;13.70;87.80;;;;;;4978850;28;20223;0
2023/12/06 04:34:22;;;;;;;2.70;2.50;;;13.70;88.20;;;;;;4979526;28;20175;0
2023/12/06 04:36:48;;;;;;;3.17;2.87;;;13.70;88.50;;;;;;4979642;28;20234;0
2023/12/06 04:39:13;;;;;;;3.27;2.20;;;13.70;88.50;;;;;;4979472;28;20263;0
2023/12/06 04:41:48;;;;;;;3.13;2.73;;;15.10;82.90;;;;;;4979160;28;20181;0
2023/12/06 04:44:13;;;;;;;2.97;2.63;;;16.60;73.50;;;;;;4963263;28;20180;0
2023/12/06 04:46:39;;;;;;;2.87;2.57;;;17.90;65.60;;;;;;4978355;28;20467;0
2023/12/06 04:49:05;;;;;;;3.37;2.87;;;18.80;60.00;;;;;;4962420;28;20179;0
2023/12/06 04:51:32;;;;;;;3.00;2.67;;;19.50;57.80;;;;;;4979183;28;20169;0
2023/12/06 04:53:57;;;;;;;2.90;2.60;;;20.10;56.20;;;;;;4962028;28;20174;0
2023/12/06 04:56:23;;;;;;;3.50;2.30;;;20.40;55.00;;;;;;4979154;28;20167;0
2023/12/06 04:58:49;;;;;;;2.90;2.60;;;20.30;54.50;;;;;;4978076;28;20488;0
2023/12/06 05:01:21;;;;;;;2.80;2.53;;;19.90;54.70;;;;;;4978995;28;20453;-1
2023/12/06 05:03:47;;;;;;;2.87;2.67;;;19.50;55.30;;;;;;4978973;28;20226;0
2023/12/06 05:06:13;;;;;;;3.00;2.50;;;18.90;56.20;;;;;;4978888;28;20524;0
2023/12/06 05:08:38;;;;;;;2.63;2.40;;;18.50;57.00;;;;;;4978283;28;20181;0
2023/12/06 05:11:04;;;;;;;2.70;2.43;;;18.00;58.00;;;;;;4962035;28;20223;0
2023/12/06 05:13:30;;;;;;;2.67;2.47;;;17.60;59.10;;;;;;4978962;28;20227;0
2023/12/06 05:15:56;;;;;;;3.23;2.63;;;17.20;60.30;;;;;;4978582;28;20688;0
2023/12/06 05:18:33;;;;;;;3.00;2.70;;;16.80;62.00;;;;;;4972898;28;20185;0
2023/12/06 05:20:59;;;;;;;3.00;2.70;;;16.50;63.90;;;;;;4961608;28;20174;0
2023/12/06 05:23:51;;;;;;;3.10;2.63;;;16.10;66.20;;;;;;4977577;28;20243;0
2023/12/06 05:26:17;;;;;;;3.27;2.90;;;15.70;68.60;;;;;;4961501;28;20190;0
2023/12/06 05:28:42;;;;;;;2.70;2.50;;;15.50;70.60;;;;;;4978286;28;20611;0
2023/12/06 05:31:08;;;;;;;3.03;2.73;;;15.20;72.40;;;;;;4960527;28;20233;0
2023/12/06 05:33:40;;;;;;;3.23;2.87;;;15.10;74.00;;;;;;4978260;28;20183;0
2023/12/06 05:36:07;;;;;;;3.80;2.80;;;14.90;75.40;;;;;;4977951;28;20186;0
2023/12/06 05:38:33;;;;;;;3.50;2.87;;;14.70;77.30;;;;;;4977823;28;20158;0
2023/12/06 05:40:59;;;;;;;3.87;2.90;;;14.60;77.70;;;;;;4977921;28;20188;0
2023/12/06 05:43:27;;;;;;;2.80;2.60;;;14.50;78.70;;;;;;4977790;28;20169;0
2023/12/06 05:45:54;;;;;;;3.50;2.53;;;14.50;79.60;;;;;;4977047;28;20176;0
2023/12/06 05:48:20;;;;;;;3.23;2.70;;;14.40;80.40;;;;;;4976934;28;20255;0
2023/12/06 05:50:46;;;;;;;5.53;3.13;;;14.30;81.10;;;;;;4976697;28;20268;0
2023/12/06 05:53:21;;;;;;;2.90;2.60;;;14.20;81.50;;;;;;4977801;28;20206;0
2023/12/06 05:55:47;;;;;;;2.97;2.67;;;14.20;82.10;;;;;;4976860;28;20194;0
2023/12/06 05:58:13;;;;;;;2.73;2.40;;;14.20;82.70;;;;;;4960301;28;20182;0
2023/12/06 06:00:38;;;;;;;3.00;2.37;;;14.10;83.30;;;;;;4973658;23;20562;-71
2023/12/06 06:03:04;;;;;;;3.77;2.70;;;14.00;83.80;;;;;;4990378;28;20183;-72
2023/12/06 06:05:30;;;;;;;4.10;2.50;;;14.00;84.40;;;;;;5007469;28;20185;-72
2023/12/06 06:07:57;;;;;;;4.47;2.80;;;13.90;84.80;;;;;;4989828;28;20241;-72
2023/12/06 06:10:23;;;;;;;3.30;2.60;;;13.90;85.40;;;;;;5007825;28;20282;-72
2023/12/06 06:12:49;;;;;;;3.07;2.70;;;13.90;85.80;;;;;;5006891;28;20414;-72
2023/12/06 06:15:15;;;;;;;3.83;3.20;;;13.90;86.20;;;;;;4988318;28;20329;-72
2023/12/06 06:17:40;;;;;;;4.77;2.93;;;14.20;85.60;;;;;;5007309;28;20385;-72
2023/12/06 06:20:07;;;;;;;3.77;2.90;;;14.80;82.60;;;;;;5006799;28;20203;-72
2023/12/06 06:22:33;;;;;;;3.80;2.90;;;15.60;78.00;;;;;;4989550;28;20244;-72
2023/12/06 06:24:58;;;;;;;6.03;3.20;;;16.30;73.30;;;;;;4993956;28;20190;-72
2023/12/06 06:27:24;;;;;;;3.10;2.63;;;16.70;70.00;;;;;;4992496;28;20184;-72
2023/12/06 06:29:50;;;;;;;3.23;2.93;;;17.20;67.20;;;;;;5008361;28;20209;-72
2023/12/06 06:32:16;;;;;;;4.20;3.13;;;17.40;65.10;;;;;;4987697;28;20182;-72
2023/12/06 06:34:42;;;;;;;3.30;3.00;;;17.50;64.20;;;;;;5003176;28;20178;-72
2023/12/06 06:37:09;;;;;;;4.23;2.90;;;17.30;64.40;;;;;;4985202;28;20507;-72
2023/12/06 06:39:34;;;;;;;3.40;3.07;;;17.10;65.00;;;;;;4981732;28;20202;-72
2023/12/06 06:42:00;;;;;;;4.00;3.40;;;16.90;65.90;;;;;;5000788;28;20232;-72
2023/12/06 06:44:28;;;;;;;3.90;3.33;;;16.60;67.20;;;;;;5000659;28;20215;-71
2023/12/06 06:46:54;;;;;;;3.63;3.27;;;16.30;68.40;;;;;;4985612;28;20176;-72
2023/12/06 06:49:20;;;;;;;3.60;3.30;;;16.10;70.60;;;;;;4988307;28;20326;-72
2023/12/06 06:51:45;;;;;;;3.67;3.23;;;15.70;71.60;;;;;;4987762;28;20346;-72
2023/12/06 06:54:11;;;;;;;5.23;3.43;;;15.50;73.40;;;;;;5006271;28;20244;-72
2023/12/06 06:56:38;;;;;;;3.70;3.00;;;15.20;75.10;;;;;;4993948;28;20189;-72
2023/12/06 06:59:04;;;;;;;3.80;3.00;;;15.10;76.60;;;;;;4995749;28;20196;-73
2023/12/06 07:01:29;;;;;;;6.30;3.47;;;14.90;77.90;;;;;;4988130;28;20200;-72
2023/12/06 07:03:55;;;;;;;4.70;2.83;;;14.80;80.00;;;;;;4988582;28;20620;-72
2023/12/06 07:06:21;;;;;;;6.10;3.10;;;14.60;80.20;;;;;;4987087;28;20191;-72
2023/12/06 07:08:47;;;;;;;6.00;3.30;;;14.50;81.20;;;;;;5006048;28;20296;-73
2023/12/06 07:11:13;;;;;;;5.70;3.63;;;14.40;82.20;;;;;;5004342;28;20342;-72
2023/12/06 07:13:39;;;;;;;4.63;3.57;;;14.30;82.80;;;;;;4986858;28;20456;-73
2023/12/06 07:16:05;;;;;;;6.27;3.27;;;14.30;83.60;;;;;;5005744;28;20167;-72
2023/12/06 07:18:34;;;;;;;7.43;3.43;;;14.20;84.00;;;;;;4988272;28;20179;-72
2023/12/06 07:21:00;;;;;;;5.83;3.67;;;14.20;84.30;;;;;;4990267;28;20290;-73
2023/12/06 07:23:26;;;;;;;6.37;3.60;;;14.10;84.80;;;;;;4988526;28;20277;-72
2023/12/06 07:25:53;;;;;;;4.70;3.63;;;14.10;85.90;;;;;;4986833;28;20572;-72
2023/12/06 07:28:19;;;;;;;6.80;3.90;;;14.00;86.50;;;;;;4985795;28;20559;-72
2023/12/06 07:30:44;;;;;;;8.53;3.80;;;14.00;86.90;;;;;;5003341;28;20175;-73
2023/12/06 07:33:11;;;;;;;7.77;3.77;;;14.00;87.10;;;;;;4987538;28;20179;-72
2023/12/06 07:35:37;;;;;;;5.03;3.83;;;13.90;87.50;;;;;;4984464;28;20187;-72
2023/12/06 07:38:05;;;;;;;7.33;3.90;;;13.90;87.90;;;;;;4986032;28;20175;-73
2023/12/06 07:40:30;;;;;;;6.27;3.67;;;13.90;88.20;;;;;;4983478;28;20201;-73
2023/12/06 07:42:57;;;;;;;6.37;3.73;;;13.90;88.40;;;;;;4986194;28;20174;-72
2023/12/06 07:45:22;;;;;;;5.67;3.80;;;13.80;88.80;;;;;;4986793;28;20247;-73
2023/12/06 07:47:49;;;;;;;4.67;3.80;;;13.80;88.90;;;;;;5005123;28;20310;-73
2023/12/06 07:50:14;;;;;;;6.10;4.17;;;13.90;88.90;;;;;;4994545;28;20184;-73
2023/12/06 07:52:40;;;;;;;5.23;3.70;;;14.80;85.40;;;;;;4996729;28;20174;-72
2023/12/06 07:55:06;;;;;;;7.63;3.83;;;15.90;78.30;;;;;;4993717;28;20196;-73
2023/12/06 07:57:36;;;;;;;4.90;3.73;;;17.00;71.50;;;;;;4997383;28;20187;-73
2023/12/06 08:00:07;;;;;;;10.43;3.87;;;17.60;66.70;;;;;;4996724;28;20197;-72
2023/12/06 08:02:34;;;;;;;6.03;3.60;;;18.20;63.20;;;;;;5013493;28;20324;-73
2023/12/06 08:05:02;;;;;;;4.93;3.67;;;18.50;60.90;;;;;;4996253;28;20173;-73
2023/12/06 08:07:28;;;;;;;5.67;3.83;;;18.70;59.50;;;;;;4996463;28;20173;-73
2023/12/06 08:09:55;;;;;;;4.70;3.70;;;18.70;59.10;;;;;;4997084;28;20175;-73
2023/12/06 08:12:21;;;;;;;5.40;3.90;;;18.60;59.10;;;;;;4996033;28;20176;-73
2023/12/06 08:14:47;;;;;;;6.83;3.63;;;18.30;59.60;;;;;;4996121;28;20368;-73
2023/12/06 08:17:12;;;;;;;7.43;3.40;;;17.90;60.50;;;;;;4994509;28;20337;-73
2023/12/06 08:20:05;;;;;;;6.10;3.97;;;17.50;61.90;;;;;;4995473;28;20200;-73
2023/12/06 08:22:37;;;;;;;4.60;3.63;;;17.00;64.10;;;;;;4993748;28;20617;-73
2023/12/06 08:25:03;;;;;;;5.43;3.90;;;16.70;66.00;;;;;;4992937;28;20473;-72
2023/12/06 08:27:29;;;;;;;4.50;3.70;;;16.30;67.80;;;;;;5009489;28;20164;-73
2023/12/06 08:30:00;;;;;;;4.20;3.70;;;16.00;69.80;;;;;;5006545;28;20171;-72
2023/12/06 08:32:27;;;;;;;5.53;3.70;;;15.70;71.90;;;;;;4984988;28;20199;-73
2023/12/06 08:34:53;;;;;;;5.67;3.83;;;15.50;73.70;;;;;;4985990;28;20328;-73
2023/12/06 08:37:20;;;;;;;4.53;4.10;;;15.30;75.30;;;;;;4985034;28;20423;-73
2023/12/06 08:39:46;;;;;;;4.73;3.57;;;15.10;77.40;;;;;;4987264;28;20260;-73
2023/12/06 08:42:15;;;;;;;4.27;3.53;;;15.00;78.20;;;;;;4986216;28;20241;-72
2023/12/06 08:44:44;;;;;;;4.53;4.00;;;14.80;79.20;;;;;;4983483;28;20442;-73
2023/12/06 08:47:10;;;;;;;4.83;3.60;;;14.70;80.40;;;;;;4984333;28;20271;-73
2023/12/06 08:49:42;;;;;;;7.13;3.60;;;14.60;81.40;;;;;;4984152;28;20450;-74
2023/12/06 08:52:10;;;;;;;5.10;3.80;;;14.50;82.00;;;;;;4993852;28;20173;-73
2023/12/06 08:54:38;;;;;;;5.00;3.97;;;14.50;82.60;;;;;;4996626;28;20195;-73
2023/12/06 08:57:04;;;;;;;5.00;3.83;;;14.40;83.20;;;;;;4995142;28;20183;-72
2023/12/06 08:59:30;;;;;;;5.27;3.83;;;14.40;83.60;;;;;;4988376;28;20572;-73
2023/12/06 09:01:59;;;;;;;5.13;3.87;;;14.30;84.20;;;;;;4994415;28;20567;-72
2023/12/06 09:04:26;;;;;;;5.20;3.87;;;14.30;84.90;;;;;;4995251;28;20568;-72
2023/12/06 09:06:52;;;;;;;4.60;3.80;;;14.20;85.50;;;;;;4994903;28;20172;-73
2023/12/06 09:09:20;;;;;;;4.97;4.20;;;14.10;85.80;;;;;;4995088;28;20222;-72
2023/12/06 09:11:46;;;;;;;4.27;3.87;;;14.10;86.30;;;;;;4994005;28;20176;-72
2023/12/06 09:14:13;;;;;;;4.67;3.80;;;14.00;86.60;;;;;;4994096;28;20184;-72
2023/12/06 09:16:42;;;;;;;4.57;3.70;;;14.00;87.00;;;;;;4993585;28;20179;-73
2023/12/06 09:19:07;;;;;;;4.70;4.07;;;14.00;87.30;;;;;;4991856;28;20240;-73
2023/12/06 09:21:44;;;;;;;5.40;3.67;;;14.00;87.30;;;;;;4985949;28;20194;-73
2023/12/06 09:24:11;;;;;;;5.70;4.10;;;14.00;87.30;;;;;;4987540;28;20176;-73
2023/12/06 09:26:37;;;;;;;4.73;3.70;;;14.00;87.30;;;;;;4987017;28;20525;-73
2023/12/06 09:29:08;;;;;;;5.00;4.00;;;14.20;87.30;;;;;;4989606;28;20183;-72
2023/12/06 09:31:44;;;;;;;6.80;4.20;;;14.80;84.30;;;;;;4992384;28;20597;-72
2023/12/06 09:34:09;;;;;;;4.70;3.67;;;15.50;79.50;;;;;;5010439;28;20322;-73
2023/12/06 09:36:35;;;;;;;4.80;4.00;;;16.10;75.70;;;;;;4993160;28;20280;-72
2023/12/06 09:39:04;;;;;;;4.40;4.00;;;16.50;72.50;;;;;;5005040;28;20612;-72
2023/12/06 09:41:33;;;;;;;4.80;4.20;;;16.90;70.00;;;;;;4987023;28;20171;-72
2023/12/06 09:44:00;;;;;;;5.33;4.00;;;17.00;68.50;;;;;;4989318;28;20431;-72
2023/12/06 09:46:26;;;;;;;7.07;3.83;;;17.00;68.10;;;;;;4994366;28;20184;-73
2023/12/06 09:48:58;;;;;;;4.67;3.77;;;16.90;67.90;;;;;;4993310;28;20203;-73
2023/12/06 09:51:25;;;;;;;4.67;3.80;;;16.70;68.70;;;;;;4993907;28;20172;-73
2023/12/06 09:53:51;;;;;;;4.23;3.70;;;16.40;69.60;;;;;;4994173;28;20299;-73
2023/12/06 09:56:21;;;;;;;4.33;3.60;;;16.20;70.70;;;;;;4993246;28;20179;-73
2023/12/06 09:58:49;;;;;;;5.13;3.97;;;16.00;72.00;;;;;;4989493;28;20490;-72
2023/12/06 10:01:14;;;;;;;5.47;3.93;;;15.70;73.50;;;;;;4984913;28;20656;-73
2023/12/06 10:03:40;;;;;;;5.33;3.80;;;15.50;75.10;;;;;;4986297;28;20171;-73
2023/12/06 10:06:06;;;;;;;4.47;3.87;;;15.30;76.60;;;;;;4989045;28;20178;-73
2023/12/06 10:08:33;;;;;;;4.20;3.60;;;15.10;78.10;;;;;;4984009;28;20408;-72
2023/12/06 10:11:05;;;;;;;5.57;3.80;;;14.90;79.40;;;;;;4984769;28;20369;-73
2023/12/06 10:13:39;;;;;;;4.00;3.60;;;14.80;80.30;;;;;;4983032;28;20585;-73
2023/12/06 10:16:16;;;;;;;4.13;3.73;;;14.70;81.40;;;;;;4983033;28;20183;-73
2023/12/06 10:18:45;;;;;;;4.60;3.40;;;14.60;82.20;;;;;;4981420;28;20171;-73
2023/12/06 10:21:11;;;;;;;4.27;3.43;;;14.50;82.80;;;;;;4987711;28;20241;-72
2023/12/06 10:23:37;;;;;;;4.20;3.70;;;14.40;83.40;;;;;;5005035;28;20176;-72
2023/12/06 10:26:05;;;;;;;4.90;3.90;;;14.40;83.80;;;;;;4988799;28;20213;-73
2023/12/06 10:28:35;;;;;;;4.40;3.60;;;14.30;84.10;;;;;;4986480;28;20182;-73
2023/12/06 10:31:03;;;;;;;3.93;3.43;;;14.30;84.50;;;;;;5002212;28;20178;-73
2023/12/06 10:33:31;;;;;;;5.20;3.47;;;14.20;85.00;;;;;;4985321;28;20600;-73
2023/12/06 10:36:01;;;;;;;4.47;3.70;;;14.20;85.40;;;;;;4999782;28;20286;-73
2023/12/06 10:38:30;;;;;;;4.53;3.60;;;14.10;85.70;;;;;;4985577;28;20314;-72
2023/12/06 10:40:59;;;;;;;4.13;3.73;;;14.10;86.00;;;;;;4985502;28;20282;-73
2023/12/06 10:43:28;;;;;;;4.60;3.67;;;14.10;86.60;;;;;;4984182;28;20292;-72
2023/12/06 10:45:55;;;;;;;4.60;3.63;;;14.00;86.80;;;;;;4986080;28;20635;-73
2023/12/06 10:48:21;;;;;;;4.43;3.60;;;14.00;87.10;;;;;;4987985;28;20205;-73
2023/12/06 10:50:49;;;;;;;4.30;3.50;;;14.00;87.20;;;;;;4989354;28;20176;-72
2023/12/06 10:53:17;;;;;;;3.70;3.30;;;14.00;87.40;;;;;;4990052;28;20495;-72
2023/12/06 10:55:43;;;;;;;4.07;3.20;;;14.00;87.40;;;;;;4987222;28;20226;-72
2023/12/06 10:58:09;;;;;;;4.37;3.43;;;14.00;87.80;;;;;;5004856;28;20502;-73
2023/12/06 11:00:35;;;;;;;4.17;3.47;;;14.00;88.10;;;;;;5001208;28;20230;-73
2023/12/06 11:03:01;;;;;;;4.37;3.33;;;13.90;88.20;;;;;;4993339;28;20180;-73
2023/12/06 11:05:31;;;;;;;3.53;3.23;;;13.90;88.30;;;;;;4987075;28;20229;-73
2023/12/06 11:08:12;;;;;;;3.80;3.40;;;13.90;88.30;;;;;;4985709;28;20177;-73
2023/12/06 11:11:04;;;;;;;4.53;3.50;;;14.20;87.90;;;;;;5006330;28;20175;-72
2023/12/06 11:13:49;;;;;;;5.30;3.47;;;15.20;81.90;;;;;;5008561;28;20270;-73
2023/12/06 11:16:47;;;;;;;3.73;3.43;;;16.50;74.00;;;;;;5006172;28;20782;-73
2023/12/06 11:19:14;;;;;;;4.00;3.53;;;17.70;67.10;;;;;;4990233;28;20298;-73
2023/12/06 11:21:40;;;;;;;3.93;3.30;;;18.60;61.60;;;;;;5004835;28;20201;-72
2023/12/06 11:24:08;;;;;;;4.13;3.60;;;18.90;59.50;;;;;;5006205;28;20177;-73
2023/12/06 11:26:34;;;;;;;3.33;3.03;;;19.20;58.50;;;;;;5006482;28;20165;-73
2023/12/06 11:29:02;;;;;;;3.40;3.03;;;19.10;58.00;;;;;;4990596;28;20405;-73
2023/12/06 11:31:37;;;;;;;3.70;3.33;;;18.90;58.10;;;;;;4989011;28;20433;-73
2023/12/06 11:34:09;;;;;;;3.70;3.17;;;18.50;58.70;;;;;;4989074;28;20414;-73
2023/12/06 11:36:35;;;;;;;4.80;3.20;;;18.10;59.40;;;;;;5004783;28;20168;-72
2023/12/06 11:39:17;;;;;;;4.90;3.50;;;17.70;60.70;;;;;;4988783;28;20693;-73
2023/12/06 11:41:50;;;;;;;3.53;2.83;;;17.40;62.10;;;;;;4988656;28;20525;-73
2023/12/06 11:44:16;;;;;;;3.27;2.73;;;16.90;64.20;;;;;;4985987;28;20271;-73
2023/12/06 11:46:55;;;;;;;3.43;3.13;;;16.70;65.90;;;;;;4986330;28;20486;-73
2023/12/06 11:49:28;;;;;;;3.50;3.17;;;16.30;68.00;;;;;;4990117;28;20570;-72
2023/12/06 11:51:59;;;;;;;3.57;3.20;;;16.00;69.90;;;;;;4988421;28;20177;-72
2023/12/06 11:54:25;;;;;;;3.73;3.20;;;15.70;71.80;;;;;;5005426;28;20510;-72
2023/12/06 11:56:51;;;;;;;3.07;2.80;;;15.50;73.50;;;;;;4985372;28;20420;-73
2023/12/06 11:59:17;;;;;;;3.63;3.20;;;15.30;75.30;;;;;;4985168;28;21095;-73
2023/12/06 12:01:45;;;;;;;4.10;3.30;;;15.20;76.60;;;;;;4987689;28;20446;-72
2023/12/06 12:04:11;;;;;;;3.20;2.90;;;15.10;77.70;;;;;;4987321;28;20215;-73
2023/12/06 12:06:37;;;;;;;3.80;3.07;;;14.90;78.90;;;;;;4987113;28;20284;-73
2023/12/06 12:09:03;;;;;;;4.20;3.50;;;14.80;79.80;;;;;;4987279;28;20457;-73
2023/12/06 12:11:32;;;;;;;3.33;2.97;;;14.70;80.70;;;;;;4987368;28;20280;-73
2023/12/06 12:13:58;;;;;;;3.20;2.90;;;14.60;81.40;;;;;;4984550;28;20555;-73
2023/12/06 12:16:24;;;;;;;3.80;3.40;;;14.60;82.00;;;;;;4982702;28;20457;-72
2023/12/06 12:18:50;;;;;;;3.40;3.00;;;14.50;82.40;;;;;;4980543;28;20218;-73
2023/12/06 12:21:20;;;;;;;3.63;3.10;;;14.50;82.80;;;;;;4982058;28;20249;-73
2023/12/06 12:23:54;;;;;;;4.03;3.13;;;14.40;83.10;;;;;;4984156;28;20545;-73
2023/12/06 12:26:20;;;;;;;4.07;3.27;;;14.40;83.50;;;;;;4986124;28;20371;-73
2023/12/06 12:28:47;;;;;;;3.33;2.90;;;14.30;83.80;;;;;;4997946;28;20341;-73
2023/12/06 12:31:20;;;;;;;3.37;3.07;;;14.30;84.00;;;;;;5005976;28;20180;-73
2023/12/06 12:33:47;;;;;;;3.50;3.20;;;14.20;84.60;;;;;;5006768;28;20176;-72
2023/12/06 12:36:14;;;;;;;3.07;2.77;;;14.20;84.90;;;;;;5005362;28;20673;-73
2023/12/06 12:38:40;;;;;;;3.40;2.80;;;14.20;85.40;;;;;;5005514;28;20170;-73
2023/12/06 12:41:10;;;;;;;3.43;3.03;;;14.10;85.60;;;;;;5024682;28;20278;-71
2023/12/06 12:43:35;;;;;;;3.63;2.90;;;14.10;85.90;;;;;;5006178;28;20726;-71
2023/12/06 12:46:03;;;;;;;3.47;3.00;;;14.10;85.90;;;;;;4993264;28;20178;-71
2023/12/06 12:48:30;;;;;;;3.20;2.87;;;14.10;85.90;;;;;;4992351;28;20539;-71
2023/12/06 12:51:14;;;;;;;3.83;3.47;;;14.10;85.90;;;;;;4984723;28;20183;-72
2023/12/06 12:53:44;;;;;;;3.90;3.30;;;14.30;85.80;;;;;;4987280;28;20172;-73
2023/12/06 12:56:12;;;;;;;3.50;3.00;;;14.90;82.90;;;;;;5014515;28;20203;-73
2023/12/06 12:58:38;;;;;;;3.40;3.10;;;15.50;78.80;;;;;;4989970;28;20179;-72
2023/12/06 13:01:06;;;;;;;3.40;3.10;;;16.00;75.50;;;;;;4986662;28;20617;-72
2023/12/06 13:03:32;;;;;;;3.47;3.03;;;16.30;73.10;;;;;;4991446;28;20420;-72
2023/12/06 13:05:59;;;;;;;4.30;3.13;;;16.60;70.80;;;;;;4986098;28;20580;-72
2023/12/06 13:08:29;;;;;;;3.63;3.03;;;16.80;69.50;;;;;;4987024;28;20253;-72
2023/12/06 13:10:54;;;;;;;3.77;3.17;;;16.80;68.90;;;;;;5006056;28;20175;-72
2023/12/06 13:13:20;;;;;;;6.17;3.60;;;16.60;69.10;;;;;;4987737;28;20228;-72
2023/12/06 13:15:49;;;;;;;3.43;2.87;;;16.50;69.60;;;;;;4986471;28;20503;-72
2023/12/06 13:18:15;;;;;;;3.73;3.10;;;16.20;70.60;;;;;;5003912;28;20168;-71
2023/12/06 13:20:41;;;;;;;4.73;3.40;;;16.00;71.70;;;;;;5002910;28;20231;-72
2023/12/06 13:23:07;;;;;;;3.30;3.00;;;15.80;72.80;;;;;;4985739;28;20175;-71
2023/12/06 13:25:32;;;;;;;3.30;3.00;;;15.60;74.10;;;;;;4983513;28;20301;-72